createdAt,value
2022-09-05T00:03:01.817Z,56.46
2022-09-05T00:08:28.623Z,56.82
2022-09-05T00:13:55.951Z,56.98
2022-09-05T00:24:20.425Z,57.88
2022-09-05T00:25:32.622Z,57.65
2022-09-05T00:31:51.426Z,57.52
2022-09-05T00:36:47.618Z,58.07
2022-09-05T00:42:12.192Z,57.67
2022-09-05T00:47:37.503Z,57.78
2022-09-05T00:53:07.621Z,58.28
2022-09-05T00:58:40.928Z,58.45
2022-09-05T01:04:12.327Z,58.49
2022-09-05T01:09:41.071Z,59.05
2022-09-05T01:15:10.527Z,59.27
2022-09-05T01:20:38.486Z,59.21
2022-09-05T01:26:07.637Z,58.27
2022-09-05T01:31:37.348Z,58.24
2022-09-05T01:37:05.575Z,59.15
2022-09-05T01:42:33.328Z,58.72
2022-09-05T01:48:00.604Z,58.18
2022-09-05T01:53:32.611Z,59.19
2022-09-05T01:58:58.820Z,59.45
2022-09-05T02:04:38.339Z,59.09
2022-09-05T02:10:17.340Z,59.62
2022-09-05T02:15:57.741Z,60.14
2022-09-05T02:21:27.827Z,60.45
2022-09-05T02:26:55.113Z,60.65
2022-09-05T02:32:19.949Z,60.98
2022-09-05T02:38:33.144Z,60.69
2022-09-05T02:45:13.704Z,60.62
2022-09-05T02:49:41.883Z,61.57
2022-09-05T02:57:34.740Z,61.71
2022-09-05T03:00:40.582Z,62.41
2022-09-05T03:06:07.084Z,62.11
2022-09-05T03:11:47.047Z,61.67
2022-09-05T03:17:33.037Z,61.73
2022-09-05T03:23:01.798Z,61.78
2022-09-05T03:28:41.098Z,62.08
2022-09-05T03:34:18.734Z,62.41
2022-09-05T03:40:15.901Z,62.77
2022-09-05T03:45:53.037Z,62.65
2022-09-05T03:57:05.715Z,62.79
2022-09-05T03:57:43.009Z,62.99
2022-09-05T04:08:08.220Z,63.57
2022-09-05T04:09:04.637Z,63.11
2022-09-05T04:14:27.689Z,63.12
2022-09-05T04:19:53.654Z,63.01
2022-09-05T04:25:17.636Z,63.48
2022-09-05T04:30:43.994Z,63.87
2022-09-05T04:36:18.207Z,64.38
2022-09-05T04:41:43.522Z,64.05
2022-09-05T04:47:09.851Z,63.73
2022-09-05T04:52:45.022Z,63.18
2022-09-05T04:58:12.059Z,64.08
2022-09-05T05:06:16.462Z,64.56
2022-09-05T05:09:20.715Z,64.72
2022-09-05T05:18:07.221Z,64.55
2022-09-05T05:20:42.044Z,64.97
2022-09-05T05:26:06.145Z,64.91
2022-09-05T05:31:30.971Z,64.04
2022-09-05T05:36:59.803Z,64.32
2022-09-05T05:42:23.206Z,63.99
2022-09-05T05:47:47.366Z,63.84
2022-09-05T05:53:32.030Z,64.73
2022-09-05T05:59:19.271Z,64.64
2022-09-05T06:05:09.494Z,64.68
2022-09-05T06:15:00.626Z,64.25
2022-09-05T06:16:42.440Z,63.93
2022-09-05T06:22:24.308Z,64.12
2022-09-05T06:28:19.332Z,63.48
2022-09-05T06:33:47.032Z,63.39
2022-09-05T06:39:13.887Z,63.19
2022-09-05T06:44:47.774Z,62.93
2022-09-05T06:50:27.430Z,62.89
2022-09-05T06:56:10.665Z,62.15
2022-09-05T07:02:01.283Z,61.00
2022-09-05T07:07:27.655Z,60.28
2022-09-05T07:12:51.380Z,60.05
2022-09-05T07:18:18.468Z,59.64
2022-09-05T07:24:06.048Z,59.39
2022-09-05T07:29:29.849Z,58.26
2022-09-05T07:34:53.690Z,57.56
2022-09-05T07:40:25.410Z,57.23
2022-09-05T07:45:55.948Z,57.06
2022-09-05T07:56:55.662Z,55.72
2022-09-05T08:02:52.668Z,54.76
2022-09-05T08:08:20.664Z,53.75
2022-09-05T08:13:48.197Z,53.14
2022-09-05T08:19:30.228Z,52.63
2022-09-05T08:25:00.117Z,51.65
2022-09-05T08:30:25.676Z,51.30
2022-09-05T08:35:53.078Z,51.22
2022-09-05T08:41:50.061Z,50.23
2022-09-05T08:47:12.848Z,49.54
2022-09-05T08:52:40.947Z,49.15
2022-09-05T08:58:09.265Z,49.06
2022-09-05T09:03:31.427Z,47.92
2022-09-05T09:09:11.600Z,47.85
2022-09-05T09:14:37.872Z,47.18
2022-09-05T09:20:10.473Z,46.56
2022-09-05T09:25:35.110Z,47.24
2022-09-05T09:31:00.106Z,46.13
2022-09-05T09:36:27.895Z,46.26
2022-09-05T09:41:53.886Z,45.79
2022-09-05T09:47:22.273Z,43.80
2022-09-05T09:52:56.352Z,40.13
2022-09-05T09:58:26.642Z,40.84
2022-09-05T10:10:34.053Z,40.45
2022-09-05T10:10:48.845Z,40.24
2022-09-05T10:15:32.712Z,39.83
2022-09-05T10:21:15.985Z,39.20
2022-09-05T10:26:54.837Z,39.04
2022-09-05T10:34:31.113Z,39.10
2022-09-05T10:38:04.376Z,39.02
2022-09-05T10:43:32.640Z,38.43
2022-09-05T10:48:54.859Z,38.88
2022-09-05T10:54:24.577Z,38.66
2022-09-05T11:02:21.116Z,37.65
2022-09-05T11:05:38.720Z,36.83
2022-09-05T11:11:04.117Z,35.45
2022-09-05T11:16:28.198Z,35.19
2022-09-05T11:22:02.192Z,34.68
2022-09-05T11:27:41.181Z,33.72
2022-09-05T11:39:46.455Z,32.66
2022-09-05T11:40:00.279Z,32.00
2022-09-05T11:44:59.832Z,32.01
2022-09-05T11:50:32.505Z,31.54
2022-09-05T11:56:14.329Z,30.82
2022-09-05T12:01:44.236Z,30.21
2022-09-05T12:07:29.783Z,30.41
2022-09-05T12:12:55.890Z,30.24
2022-09-05T12:18:25.737Z,30.07
2022-09-05T12:25:16.070Z,28.97
2022-09-05T12:29:38.755Z,27.38
2022-09-05T12:36:10.636Z,25.34
2022-09-05T12:41:35.259Z,24.83
2022-09-05T12:46:37.270Z,24.80
2022-09-05T12:52:04.504Z,25.25
2022-09-05T13:02:50.341Z,26.54
2022-09-05T13:03:35.570Z,27.46
2022-09-05T13:09:01.353Z,27.78
2022-09-05T13:15:01.060Z,28.25
2022-09-05T13:20:08.656Z,28.35
2022-09-05T13:25:31.600Z,28.62
2022-09-05T13:36:40.751Z,28.45
2022-09-05T13:38:02.272Z,28.81
2022-09-05T13:42:24.726Z,29.42
2022-09-05T13:48:00.791Z,30.14
2022-09-05T13:53:36.593Z,30.95
2022-09-05T13:59:01.556Z,32.28
2022-09-05T14:11:00.342Z,32.77
2022-09-05T14:16:26.121Z,33.04
2022-09-05T14:21:48.359Z,33.32
2022-09-05T14:27:13.513Z,33.75
2022-09-05T14:37:42.571Z,34.52
2022-09-05T14:38:07.859Z,34.82
2022-09-05T14:43:30.868Z,35.07
2022-09-05T14:48:44.365Z,35.58
2022-09-05T15:02:45.357Z,36.85
2022-09-05T15:04:42.499Z,37.17
2022-09-05T15:12:18.006Z,37.14
2022-09-05T15:15:15.654Z,37.60
2022-09-05T15:20:30.673Z,37.88
2022-09-05T15:25:42.498Z,38.33
2022-09-05T15:30:55.932Z,38.76
2022-09-05T15:36:01.018Z,39.57
2022-09-05T15:41:10.585Z,40.11
2022-09-05T15:46:14.544Z,40.04
2022-09-05T15:51:20.934Z,40.76
2022-09-05T15:56:26.330Z,40.76
2022-09-05T16:01:31.179Z,40.81
2022-09-05T16:10:42.220Z,41.29
2022-09-05T16:12:29.592Z,41.43
2022-09-05T16:23:16.907Z,42.22
2022-09-05T16:23:33.599Z,42.45
2022-09-05T16:28:36.295Z,42.94
2022-09-05T16:33:43.067Z,43.85
2022-09-05T16:38:50.613Z,43.84
2022-09-05T16:43:55.764Z,44.16
2022-09-05T16:49:04.514Z,44.10
2022-09-05T16:54:17.460Z,44.48
2022-09-05T16:59:21.330Z,44.80
2022-09-05T17:04:27.238Z,44.88
2022-09-05T17:09:39.823Z,45.98
2022-09-05T17:14:44.195Z,46.86
2022-09-05T17:20:05.688Z,47.12
2022-09-05T17:29:25.564Z,47.47
2022-09-05T17:36:40.974Z,48.49
2022-09-05T17:41:53.687Z,49.34
2022-09-05T17:47:06.650Z,49.84
2022-09-05T17:52:27.602Z,50.21
2022-09-05T17:57:41.380Z,50.89
2022-09-05T18:02:53.647Z,50.79
2022-09-05T18:08:00.336Z,51.20
2022-09-05T18:13:31.480Z,51.15
2022-09-05T18:19:33.036Z,50.36
2022-09-05T18:24:02.837Z,51.20
2022-09-05T18:29:14.609Z,51.82
2022-09-05T18:34:36.049Z,52.16
2022-09-05T18:39:42.614Z,52.10
2022-09-05T18:44:49.158Z,51.64
2022-09-05T18:50:25.878Z,51.91
2022-09-05T18:56:09.811Z,52.21
2022-09-05T19:00:44.596Z,51.76
2022-09-05T19:05:52.761Z,51.41
2022-09-05T19:10:58.745Z,51.95
2022-09-05T19:16:44.136Z,52.00
2022-09-05T19:21:33.176Z,51.98
2022-09-05T19:26:36.813Z,52.38
2022-09-05T19:36:51.435Z,52.22
2022-09-05T19:37:37.340Z,52.35
2022-09-05T19:47:36.960Z,52.31
2022-09-05T19:48:07.483Z,51.75
2022-09-05T19:53:13.516Z,52.63
2022-09-05T19:58:20.274Z,51.83
2022-09-05T20:03:25.323Z,51.97
2022-09-05T20:08:30.514Z,52.44
2022-09-05T20:13:34.006Z,52.57
2022-09-05T20:18:40.528Z,53.11
2022-09-05T20:23:44.528Z,53.66
2022-09-05T20:28:53.980Z,53.95
2022-09-05T20:34:00.848Z,54.68
2022-09-05T20:43:19.664Z,55.02
2022-09-05T20:44:42.270Z,55.57
2022-09-05T20:54:22.167Z,55.00
2022-09-05T20:55:40.455Z,55.72
2022-09-05T21:00:41.402Z,54.93
2022-09-05T21:06:12.788Z,54.64
2022-09-05T21:11:16.168Z,55.10
2022-09-05T21:16:21.376Z,54.86
2022-09-05T21:21:29.659Z,55.00
2022-09-05T21:26:33.525Z,54.97
2022-09-05T21:31:42.627Z,55.31
2022-09-05T21:36:48.579Z,55.78
2022-09-05T21:42:07.783Z,56.12
2022-09-05T21:47:39.037Z,55.92
2022-09-05T21:54:06.512Z,56.51
2022-09-05T21:59:17.035Z,56.13
2022-09-05T22:03:39.224Z,55.72
2022-09-05T22:08:56.270Z,56.37
2022-09-05T22:14:07.512Z,56.27
2022-09-05T22:19:11.851Z,56.32
2022-09-05T22:24:16.152Z,56.90
2022-09-05T22:29:19.145Z,56.53
2022-09-05T22:34:22.539Z,56.13
2022-09-05T22:39:36.633Z,56.18
2022-09-05T22:44:41.236Z,55.98
2022-09-05T22:49:44.194Z,56.21
2022-09-05T22:54:48.469Z,56.60
2022-09-05T22:59:51.448Z,56.57
2022-09-05T23:04:54.443Z,57.28
2022-09-05T23:09:58.783Z,57.69
2022-09-05T23:15:01.743Z,57.77
2022-09-05T23:20:05.364Z,58.02
2022-09-05T23:25:10.281Z,57.72
2022-09-05T23:30:13.651Z,57.39
2022-09-05T23:35:17.797Z,57.58
2022-09-05T23:40:23.164Z,57.97
2022-09-05T23:45:26.567Z,58.44
2022-09-05T23:50:29.579Z,58.66
2022-09-05T23:55:33.843Z,59.14
